Attica Junction, Ohio
Current Conditions -  °F | °C
As of 11:52 PM on Sunday 21 Dec 2014 (Local Time) from KMFD Reporting Station
Clear Clear  
Wind Chill: 16°   Ceiling: Unl
Heat Index: 23°   Visibility: 7mi
Dew Point: 20°   Wind: 6mph
Humidity: 88%   Direction: 100°E
Pressure: 30.14"   Gusts: NA
Location:  41.0654°N, 82.876°W
Report Text: KMFD 220452Z AUTO 10005KT 7SM CLR M05/M07 A3014 RMK AO2 SLP223 T10501067 400171050
Loading
Personal Weather Stations






























Interactive Weather Map New forecast layout! Learn more

10-Day Weather Forecast

Advertisements
Track Severe Weather on mobile